Bradfords Cross Roads, North Carolina
Current Conditions -  °F | °C
As of 2:55 AM on Sunday 26 Oct 2014 (Local Time) from KSVH Reporting Station
Clear Clear  
Wind Chill: 51°   Ceiling: Unl
Heat Index: 51°   Visibility: 10mi
Dew Point: 49°   Wind: 3mph
Humidity: 91%   Direction: 240°WSW
Pressure: 29.9"   Gusts: NA
Location:  35.8306°N, 80.9003°W
Report Text: KSVH 260655Z AUTO 24003KT 10SM CLR 11/09 A2990 RMK AO2 T01070093
Loading
Personal Weather Stations






























Interactive Weather Map
Tropical Storm Tracking
New forecast layout! Learn more

10-Day Weather Forecast

Advertisements
Track Severe Weather on mobile